createdAt,value
2022-10-20T00:01:25.897Z,16.90
2022-10-20T00:03:53.460Z,18.35
2022-10-20T00:06:23.855Z,15.93
2022-10-20T00:08:50.789Z,19.20
2022-10-20T00:11:19.796Z,16.92
2022-10-20T00:13:48.556Z,19.25
2022-10-20T00:16:15.963Z,19.60
2022-10-20T00:18:42.493Z,19.70
2022-10-20T00:21:18.275Z,17.38
2022-10-20T00:23:45.048Z,16.83
2022-10-20T00:26:13.383Z,19.58
2022-10-20T00:28:39.874Z,19.48
2022-10-20T00:31:07.007Z,17.50
2022-10-20T00:33:34.294Z,21.67
2022-10-20T00:36:05.509Z,22.02
2022-10-20T00:38:32.842Z,22.00
2022-10-20T00:41:06.177Z,26.75
2022-10-20T00:43:44.875Z,26.45
2022-10-20T00:46:15.116Z,26.90
2022-10-20T00:48:45.458Z,29.35
2022-10-20T00:51:16.121Z,30.75
2022-10-20T00:53:44.825Z,31.95
2022-10-20T00:56:11.536Z,31.80
2022-10-20T00:58:38.714Z,32.22
2022-10-20T01:01:05.419Z,34.92
2022-10-20T01:03:42.266Z,33.30
2022-10-20T01:06:08.929Z,37.70
2022-10-20T01:08:35.597Z,43.80
2022-10-20T01:11:28.553Z,46.72
2022-10-20T01:14:08.337Z,47.17
2022-10-20T01:17:12.743Z,47.63
2022-10-20T01:19:58.353Z,55.03
2022-10-20T01:22:36.444Z,55.70
2022-10-20T01:25:27.947Z,56.15
2022-10-20T01:28:12.628Z,53.13
2022-10-20T01:30:50.136Z,53.92
2022-10-20T01:33:32.588Z,60.47
2022-10-20T01:36:18.405Z,67.72
2022-10-20T01:38:51.676Z,63.42
2022-10-20T01:41:42.351Z,54.65
2022-10-20T01:44:12.364Z,57.58
2022-10-20T01:46:42.433Z,65.57
2022-10-20T01:49:09.551Z,59.03
2022-10-20T01:51:36.093Z,60.67
2022-10-20T01:54:02.759Z,54.58
2022-10-20T01:56:45.913Z,70.57
2022-10-20T01:59:27.740Z,82.25
2022-10-20T02:02:26.723Z,60.15
2022-10-20T02:05:18.305Z,71.25
2022-10-20T02:07:44.948Z,77.95
2022-10-20T02:10:27.443Z,62.28
2022-10-20T02:12:58.602Z,75.03
2022-10-20T02:15:27.054Z,64.03
2022-10-20T02:18:03.272Z,63.47
2022-10-20T02:20:31.819Z,59.13
2022-10-20T02:23:00.363Z,56.60
2022-10-20T02:25:29.613Z,81.55
2022-10-20T02:30:24.887Z,58.17
2022-10-20T02:32:52.914Z,58.00
2022-10-20T02:35:29.045Z,62.55
2022-10-20T02:37:56.692Z,61.10
2022-10-20T02:40:23.346Z,62.17
2022-10-20T02:42:50.007Z,74.95
2022-10-20T02:45:16.620Z,56.65
2022-10-20T02:47:43.161Z,60.67
2022-10-20T02:50:10.332Z,62.95
2022-10-20T02:52:37.926Z,66.32
2022-10-20T02:55:06.192Z,55.35
2022-10-20T02:57:33.016Z,61.05
2022-10-20T02:59:59.681Z,47.60
2022-10-20T03:02:26.184Z,58.70
2022-10-20T03:04:55.825Z,53.53
2022-10-20T03:07:22.320Z,55.88
2022-10-20T03:09:49.023Z,60.15
2022-10-20T03:12:15.610Z,72.57
2022-10-20T03:14:42.830Z,64.50
2022-10-20T03:17:09.743Z,66.90
2022-10-20T03:19:36.309Z,49.72
2022-10-20T03:22:02.806Z,65.93
2022-10-20T03:24:29.341Z,70.88
2022-10-20T03:26:55.815Z,61.35
2022-10-20T03:29:22.324Z,77.88
2022-10-20T03:34:16.300Z,59.85
2022-10-20T03:36:42.827Z,67.43
2022-10-20T03:39:09.394Z,67.85
2022-10-20T03:41:35.922Z,59.40
2022-10-20T03:44:02.468Z,63.47
2022-10-20T03:46:29.030Z,68.25
2022-10-20T03:48:55.573Z,61.90
2022-10-20T03:51:22.174Z,62.17
2022-10-20T03:53:48.711Z,59.45
2022-10-20T03:56:20.161Z,61.70
2022-10-20T03:58:47.402Z,58.67
2022-10-20T04:01:20.084Z,74.55
2022-10-20T04:03:46.774Z,55.30
2022-10-20T04:06:14.198Z,64.50
2022-10-20T04:08:41.487Z,53.83
2022-10-20T04:11:08.277Z,63.95
2022-10-20T04:13:34.900Z,65.32
2022-10-20T04:16:01.673Z,62.75
2022-10-20T04:18:28.283Z,53.22
2022-10-20T04:20:54.943Z,58.85
2022-10-20T04:23:21.541Z,57.15
2022-10-20T04:25:48.772Z,60.40
2022-10-20T04:28:17.554Z,53.90
2022-10-20T04:30:44.946Z,54.03
2022-10-20T04:33:12.585Z,56.85
2022-10-20T04:35:39.623Z,55.47
2022-10-20T04:38:07.067Z,52.63
2022-10-20T04:40:33.949Z,57.40
2022-10-20T04:43:01.157Z,57.90
2022-10-20T04:45:31.349Z,47.10
2022-10-20T04:47:58.263Z,43.05
2022-10-20T04:50:25.075Z,56.70
2022-10-20T04:53:06.487Z,56.00
2022-10-20T04:55:33.478Z,48.63
2022-10-20T04:58:00.197Z,52.03
2022-10-20T05:00:26.812Z,55.75
2022-10-20T05:02:54.815Z,57.30
2022-10-20T05:05:21.571Z,65.78
2022-10-20T05:07:48.140Z,55.47
2022-10-20T05:10:15.078Z,57.88
2022-10-20T05:12:43.094Z,60.55
2022-10-20T05:15:11.133Z,46.85
2022-10-20T05:17:38.773Z,48.72
2022-10-20T05:20:06.832Z,71.95
2022-10-20T05:22:34.377Z,52.05
2022-10-20T05:25:24.506Z,53.75
2022-10-20T05:27:49.519Z,55.88
2022-10-20T05:30:18.091Z,53.67
2022-10-20T05:32:48.534Z,50.17
2022-10-20T05:35:16.063Z,52.63
2022-10-20T05:37:43.204Z,48.78
2022-10-20T05:40:11.306Z,57.80
2022-10-20T05:42:38.521Z,59.70
2022-10-20T05:45:06.401Z,51.53
2022-10-20T05:47:34.431Z,48.83
2022-10-20T05:50:02.359Z,56.03
2022-10-20T05:52:33.491Z,69.45
2022-10-20T05:55:08.948Z,46.30
2022-10-20T05:57:36.171Z,42.60
2022-10-20T06:00:04.787Z,55.50
2022-10-20T06:02:54.617Z,46.97
2022-10-20T06:05:22.374Z,44.45
2022-10-20T06:07:49.879Z,44.67
2022-10-20T06:10:17.438Z,41.92
2022-10-20T06:12:46.925Z,47.35
2022-10-20T06:15:14.517Z,67.68
2022-10-20T06:17:41.434Z,50.72
2022-10-20T06:20:11.735Z,48.38
2022-10-20T06:22:38.878Z,56.65
2022-10-20T06:25:12.421Z,50.25
2022-10-20T06:27:39.650Z,62.85
2022-10-20T06:30:07.454Z,55.55
2022-10-20T06:32:34.285Z,46.50
2022-10-20T06:35:01.609Z,48.90
2022-10-20T06:37:32.332Z,43.00
2022-10-20T06:40:00.319Z,41.97
2022-10-20T06:42:28.842Z,50.38
2022-10-20T06:44:56.359Z,42.90
2022-10-20T06:47:22.946Z,52.78
2022-10-20T06:49:49.482Z,44.83
2022-10-20T06:52:16.366Z,39.60
2022-10-20T06:54:43.001Z,48.47
2022-10-20T06:57:09.869Z,48.17
2022-10-20T06:59:38.668Z,49.72
2022-10-20T07:02:05.303Z,57.40
2022-10-20T07:04:31.928Z,45.95
2022-10-20T07:06:58.505Z,44.33
2022-10-20T07:09:25.014Z,39.95
2022-10-20T07:11:52.855Z,43.38
2022-10-20T07:14:19.928Z,45.95
2022-10-20T07:16:46.720Z,57.47
2022-10-20T07:19:13.550Z,47.25
2022-10-20T07:21:41.749Z,55.47
2022-10-20T07:24:11.934Z,53.47
2022-10-20T07:26:40.490Z,43.40
2022-10-20T07:29:07.255Z,47.42
2022-10-20T07:31:40.337Z,49.00
2022-10-20T07:34:26.843Z,48.25
2022-10-20T07:36:54.767Z,44.30
2022-10-20T07:39:21.446Z,40.55
2022-10-20T07:41:48.658Z,51.33
2022-10-20T07:44:16.428Z,44.13
2022-10-20T07:46:43.063Z,47.28
2022-10-20T07:51:56.314Z,39.60
2022-10-20T07:54:22.795Z,39.53
2022-10-20T07:56:49.604Z,55.50
2022-10-20T07:59:16.477Z,40.33
2022-10-20T08:01:43.100Z,46.92
2022-10-20T08:04:09.674Z,54.33
2022-10-20T08:06:36.188Z,46.55
2022-10-20T08:09:03.805Z,43.08
2022-10-20T08:11:30.343Z,61.22
2022-10-20T08:13:56.834Z,45.15
2022-10-20T08:16:29.799Z,44.00
2022-10-20T08:18:59.514Z,41.50
2022-10-20T08:21:26.090Z,44.13
2022-10-20T08:23:52.761Z,42.47
2022-10-20T08:26:25.047Z,47.45
2022-10-20T08:28:53.319Z,39.75
2022-10-20T08:31:20.509Z,44.42
2022-10-20T08:33:52.131Z,56.20
2022-10-20T08:36:19.394Z,44.85
2022-10-20T08:38:45.938Z,50.55
2022-10-20T08:41:34.491Z,42.35
2022-10-20T08:44:03.531Z,45.83
2022-10-20T08:46:35.370Z,49.15
2022-10-20T08:49:04.934Z,37.65
2022-10-20T08:51:37.154Z,41.67
2022-10-20T08:54:05.730Z,38.55
2022-10-20T08:56:34.790Z,47.92
2022-10-20T08:59:03.367Z,38.40
2022-10-20T09:01:34.861Z,43.38
2022-10-20T09:04:19.384Z,40.72
2022-10-20T09:06:50.677Z,32.65
2022-10-20T09:09:21.011Z,41.30
2022-10-20T09:11:48.355Z,38.92
2022-10-20T09:14:16.738Z,37.53
2022-10-20T09:16:59.890Z,38.75
2022-10-20T09:19:28.303Z,37.80
2022-10-20T09:22:02.720Z,34.55
2022-10-20T09:24:30.882Z,39.15
2022-10-20T09:27:16.080Z,43.30
2022-10-20T09:29:42.899Z,38.03
2022-10-20T09:32:49.353Z,39.80
2022-10-20T09:35:32.746Z,36.75
2022-10-20T09:38:11.494Z,44.00
2022-10-20T09:40:45.989Z,39.50
2022-10-20T09:43:16.947Z,32.70
2022-10-20T09:46:01.258Z,34.10
2022-10-20T09:48:31.766Z,35.58
2022-10-20T09:50:59.093Z,41.03
2022-10-20T09:53:29.433Z,32.83
2022-10-20T09:55:56.378Z,28.63
2022-10-20T09:58:42.056Z,25.58
2022-10-20T10:01:11.587Z,32.88
2022-10-20T10:03:48.979Z,30.30
2022-10-20T10:06:37.372Z,29.70
2022-10-20T10:12:00.799Z,33.42
2022-10-20T10:14:28.446Z,30.27
2022-10-20T10:16:55.463Z,33.20
2022-10-20T10:19:31.101Z,27.38
2022-10-20T10:22:01.052Z,23.77
2022-10-20T10:24:39.319Z,26.60
2022-10-20T10:27:19.237Z,23.98
2022-10-20T10:29:46.178Z,24.50
2022-10-20T10:32:14.463Z,24.23
2022-10-20T10:34:50.309Z,23.65
2022-10-20T10:37:17.647Z,24.33
2022-10-20T10:39:46.945Z,23.08
2022-10-20T10:42:27.810Z,23.98
2022-10-20T10:45:17.865Z,21.02
2022-10-20T10:47:59.893Z,22.35
2022-10-20T10:50:38.467Z,22.88
2022-10-20T10:53:39.263Z,24.48
2022-10-20T10:56:30.521Z,25.98
2022-10-20T10:59:11.599Z,27.48
2022-10-20T11:02:02.885Z,24.67
2022-10-20T11:04:45.934Z,26.02
2022-10-20T11:07:25.770Z,22.70
2022-10-20T11:10:17.135Z,24.15
2022-10-20T11:13:02.282Z,23.90
2022-10-20T11:15:44.085Z,25.13
2022-10-20T11:18:19.612Z,27.98
2022-10-20T11:21:17.885Z,22.50
2022-10-20T11:24:02.223Z,27.30
2022-10-20T11:26:34.857Z,24.42
2022-10-20T11:29:04.877Z,23.98
2022-10-20T11:31:36.558Z,28.52
2022-10-20T11:34:23.809Z,27.77
2022-10-20T11:36:59.812Z,24.15
2022-10-20T11:39:34.976Z,24.60
2022-10-20T11:42:15.411Z,24.25
2022-10-20T11:44:44.490Z,25.70
2022-10-20T11:47:16.437Z,23.08
2022-10-20T11:49:44.095Z,21.02
2022-10-20T11:52:43.574Z,22.90
2022-10-20T11:55:28.037Z,21.33
2022-10-20T11:58:16.219Z,25.92
2022-10-20T12:00:59.786Z,19.92
2022-10-20T12:03:26.443Z,22.77
2022-10-20T12:06:09.181Z,21.55
2022-10-20T12:11:34.287Z,25.60
2022-10-20T12:14:21.228Z,22.63
2022-10-20T12:16:59.901Z,18.42
2022-10-20T12:19:29.845Z,19.40
2022-10-20T12:21:59.371Z,19.45
2022-10-20T12:24:36.002Z,22.42
2022-10-20T12:27:23.300Z,20.08
2022-10-20T12:29:56.030Z,23.02
2022-10-20T12:32:25.384Z,23.63
2022-10-20T12:35:23.635Z,23.15
2022-10-20T12:38:02.379Z,20.55
2022-10-20T12:40:40.748Z,20.20
2022-10-20T12:43:24.533Z,20.13
2022-10-20T12:48:23.712Z,22.55
2022-10-20T12:50:51.659Z,19.40
2022-10-20T12:53:18.118Z,19.00
2022-10-20T12:55:58.238Z,23.85
2022-10-20T12:58:29.351Z,19.13
2022-10-20T13:00:58.328Z,18.02
2022-10-20T13:03:48.032Z,20.08
2022-10-20T13:06:23.728Z,18.90
2022-10-20T13:09:02.696Z,21.45
2022-10-20T13:11:40.981Z,21.10
2022-10-20T13:14:18.408Z,18.98
2022-10-20T13:16:49.085Z,20.02
2022-10-20T13:19:21.524Z,20.67
2022-10-20T13:21:49.709Z,20.67
2022-10-20T13:24:30.913Z,24.55
2022-10-20T13:27:02.945Z,19.83
2022-10-20T13:29:44.101Z,20.85
2022-10-20T13:32:32.420Z,20.13
2022-10-20T13:35:09.582Z,20.00
2022-10-20T13:38:00.203Z,21.25
2022-10-20T13:40:39.735Z,19.75
2022-10-20T13:43:29.383Z,18.83
2022-10-20T13:46:21.068Z,20.00
2022-10-20T13:48:56.744Z,17.17
2022-10-20T13:51:32.286Z,22.48
2022-10-20T13:54:02.810Z,22.02
2022-10-20T13:56:50.075Z,21.45
2022-10-20T13:59:25.495Z,23.00
2022-10-20T14:01:56.580Z,22.95
2022-10-20T14:04:34.933Z,25.67
2022-10-20T14:07:10.520Z,23.33
2022-10-20T14:09:39.520Z,20.77
2022-10-20T14:12:17.969Z,22.05
2022-10-20T14:14:45.672Z,22.85
2022-10-20T14:17:20.364Z,22.27
2022-10-20T14:19:47.086Z,24.70
2022-10-20T14:22:23.067Z,24.15
2022-10-20T14:24:55.850Z,27.23
2022-10-20T14:27:25.816Z,22.38
2022-10-20T14:29:53.642Z,27.35
2022-10-20T14:32:23.260Z,24.02
2022-10-20T14:35:01.226Z,24.85
2022-10-20T14:37:34.927Z,20.65
2022-10-20T14:40:14.119Z,22.42
2022-10-20T14:42:44.831Z,21.10
2022-10-20T14:45:23.972Z,26.25
2022-10-20T14:47:52.370Z,24.70
2022-10-20T14:50:34.447Z,23.00
2022-10-20T14:53:33.528Z,22.80
2022-10-20T14:56:02.635Z,22.10
2022-10-20T14:58:50.931Z,19.10
2022-10-20T15:01:24.124Z,21.45
2022-10-20T15:07:13.754Z,24.52
2022-10-20T15:09:43.605Z,24.08
2022-10-20T15:12:32.575Z,20.95
2022-10-20T15:15:27.889Z,22.15
2022-10-20T15:18:03.526Z,23.23
2022-10-20T15:20:30.223Z,22.80
2022-10-20T15:22:57.930Z,24.63
2022-10-20T15:25:26.193Z,23.73
2022-10-20T15:27:53.049Z,23.70
2022-10-20T15:30:21.732Z,27.15
2022-10-20T15:32:49.024Z,25.00
2022-10-20T15:35:19.198Z,25.63
2022-10-20T15:37:51.162Z,25.10
2022-10-20T15:40:18.185Z,20.45
2022-10-20T15:42:44.703Z,19.73
2022-10-20T15:45:22.746Z,21.77
2022-10-20T15:47:49.276Z,20.50
2022-10-20T15:50:19.529Z,19.35
2022-10-20T15:52:48.545Z,18.70
2022-10-20T15:55:25.964Z,20.58
2022-10-20T15:57:53.952Z,19.77
2022-10-20T16:00:23.545Z,25.85
2022-10-20T16:02:50.509Z,20.15
2022-10-20T16:05:18.990Z,25.00
2022-10-20T16:07:46.464Z,23.75
2022-10-20T16:10:13.729Z,18.25
2022-10-20T16:12:43.351Z,22.33
2022-10-20T16:15:11.293Z,20.38
2022-10-20T16:17:37.973Z,16.67
2022-10-20T16:20:07.482Z,23.88
2022-10-20T16:22:35.677Z,18.20
2022-10-20T16:25:02.943Z,23.00
2022-10-20T16:27:30.720Z,27.58
2022-10-20T16:29:57.380Z,22.10
2022-10-20T16:32:24.057Z,24.20
2022-10-20T16:34:50.589Z,21.20
2022-10-20T16:37:17.454Z,20.80
2022-10-20T16:39:43.953Z,18.95
2022-10-20T16:42:10.485Z,19.98
2022-10-20T16:44:36.997Z,19.55
2022-10-20T16:47:03.524Z,20.52
2022-10-20T16:49:30.053Z,22.52
2022-10-20T16:51:56.608Z,21.35
2022-10-20T16:54:23.255Z,19.38
2022-10-20T16:56:49.979Z,23.50
2022-10-20T16:59:16.568Z,20.02
2022-10-20T17:01:43.154Z,19.77
2022-10-20T17:04:11.516Z,25.17
2022-10-20T17:06:38.575Z,21.27
2022-10-20T17:09:05.587Z,23.92
2022-10-20T17:11:32.971Z,22.80
2022-10-20T17:13:59.772Z,22.73
2022-10-20T17:16:31.797Z,26.42
2022-10-20T17:19:00.072Z,22.13
2022-10-20T17:21:28.141Z,25.00
2022-10-20T17:23:54.800Z,27.90
2022-10-20T17:26:23.023Z,25.20
2022-10-20T17:28:49.950Z,26.80
2022-10-20T17:31:18.082Z,26.15
2022-10-20T17:33:45.543Z,23.83
2022-10-20T17:36:13.001Z,23.75
2022-10-20T17:38:41.693Z,23.63
2022-10-20T17:41:11.048Z,27.17
2022-10-20T17:43:37.748Z,26.77
2022-10-20T17:46:09.737Z,30.52
2022-10-20T17:48:36.692Z,27.70
2022-10-20T17:51:20.928Z,26.45
2022-10-20T17:53:58.145Z,24.37
2022-10-20T17:56:27.672Z,25.33
2022-10-20T17:58:55.575Z,26.50
2022-10-20T18:01:27.987Z,35.70
2022-10-20T18:03:57.123Z,28.58
2022-10-20T18:06:26.332Z,33.10
2022-10-20T18:08:56.307Z,26.30
2022-10-20T18:11:26.593Z,26.73
2022-10-20T18:13:53.174Z,31.70
2022-10-20T18:16:20.945Z,28.25
2022-10-20T18:18:47.831Z,29.15
2022-10-20T18:21:16.445Z,26.42
2022-10-20T18:23:45.549Z,27.20
2022-10-20T18:26:17.773Z,31.38
2022-10-20T18:28:48.167Z,36.60
2022-10-20T18:31:26.492Z,31.17
2022-10-20T18:33:58.180Z,33.50
2022-10-20T18:36:27.560Z,27.85
2022-10-20T18:38:54.836Z,37.28
2022-10-20T18:41:25.107Z,30.00
2022-10-20T18:43:58.310Z,32.35
2022-10-20T18:46:26.310Z,24.92
2022-10-20T18:48:53.178Z,28.63
2022-10-20T18:51:19.746Z,33.45
2022-10-20T18:53:47.163Z,30.45
2022-10-20T18:56:18.672Z,28.60
2022-10-20T18:58:50.811Z,33.08
2022-10-20T19:01:19.314Z,38.10
2022-10-20T19:03:48.676Z,35.72
2022-10-20T19:06:22.100Z,27.13
2022-10-20T19:08:55.424Z,35.25
2022-10-20T19:11:25.088Z,36.40
2022-10-20T19:13:52.683Z,39.67
2022-10-20T19:16:22.241Z,41.10
2022-10-20T19:18:50.963Z,37.55
2022-10-20T19:21:18.258Z,38.22
2022-10-20T19:24:06.825Z,32.58
2022-10-20T19:26:40.061Z,39.63
2022-10-20T19:29:09.454Z,40.58
2022-10-20T19:31:39.003Z,35.20
2022-10-20T19:34:09.704Z,34.97
2022-10-20T19:36:36.534Z,33.88
2022-10-20T19:39:05.624Z,31.33
2022-10-20T19:41:32.190Z,35.40
2022-10-20T19:43:59.116Z,38.03
2022-10-20T19:46:25.742Z,32.63
2022-10-20T19:48:52.634Z,25.45
2022-10-20T19:51:20.110Z,28.35
2022-10-20T19:53:48.334Z,32.00
2022-10-20T19:56:15.773Z,28.73
2022-10-20T19:58:45.731Z,26.40
2022-10-20T20:01:13.682Z,34.97
2022-10-20T20:03:40.347Z,27.80
2022-10-20T20:06:09.680Z,25.77
2022-10-20T20:08:36.910Z,32.38
2022-10-20T20:11:06.476Z,27.50
2022-10-20T20:13:33.080Z,30.23
2022-10-20T20:16:07.176Z,27.25
2022-10-20T20:18:35.735Z,28.00
2022-10-20T20:21:04.428Z,32.67
2022-10-20T20:23:41.131Z,30.00
2022-10-20T20:26:18.430Z,29.20
2022-10-20T20:28:45.002Z,26.42
2022-10-20T20:31:11.984Z,28.27
2022-10-20T20:33:38.814Z,26.50
2022-10-20T20:36:08.102Z,29.15
2022-10-20T20:38:37.115Z,23.27
2022-10-20T20:41:06.930Z,28.55
2022-10-20T20:43:35.439Z,29.05
2022-10-20T20:46:06.312Z,26.80
2022-10-20T20:48:35.178Z,32.40
2022-10-20T20:51:01.825Z,29.30
2022-10-20T20:53:28.706Z,26.27
2022-10-20T20:55:56.808Z,25.67
2022-10-20T20:58:23.464Z,26.83
2022-10-20T21:00:50.697Z,25.00
2022-10-20T21:03:18.432Z,29.17
2022-10-20T21:05:44.956Z,28.30
2022-10-20T21:08:11.471Z,38.35
2022-10-20T21:10:37.936Z,30.80
2022-10-20T21:13:04.468Z,35.88
2022-10-20T21:15:30.999Z,33.42
2022-10-20T21:17:57.533Z,40.10
2022-10-20T21:20:24.039Z,34.63
2022-10-20T21:22:50.573Z,37.17
2022-10-20T21:25:17.457Z,35.88
2022-10-20T21:27:43.959Z,36.40
2022-10-20T21:30:11.117Z,32.63
2022-10-20T21:32:37.944Z,30.92
2022-10-20T21:35:04.959Z,35.10
2022-10-20T21:37:31.442Z,29.23
2022-10-20T21:39:57.939Z,29.67
2022-10-20T21:42:24.454Z,32.72
2022-10-20T21:44:51.009Z,27.40
2022-10-20T21:47:17.799Z,35.85
2022-10-20T21:49:44.383Z,32.15
2022-10-20T21:52:10.898Z,34.42
2022-10-20T21:54:37.557Z,34.03
2022-10-20T21:57:04.173Z,35.60
2022-10-20T21:59:31.127Z,32.97
2022-10-20T22:01:59.825Z,31.27
2022-10-20T22:04:28.383Z,29.08
2022-10-20T22:06:55.816Z,28.70
2022-10-20T22:09:22.685Z,28.83
2022-10-20T22:11:51.613Z,26.10
2022-10-20T22:14:18.135Z,24.83
2022-10-20T22:16:44.623Z,27.23
2022-10-20T22:19:17.101Z,23.88
2022-10-20T22:21:45.758Z,22.58
2022-10-20T22:24:13.423Z,21.73
2022-10-20T22:26:40.793Z,25.35
2022-10-20T22:29:09.593Z,27.02
2022-10-20T22:31:37.103Z,24.35
2022-10-20T22:34:04.181Z,25.50
2022-10-20T22:36:30.793Z,22.67
2022-10-20T22:38:57.329Z,23.05
2022-10-20T22:41:23.875Z,21.90
2022-10-20T22:43:50.678Z,22.48
2022-10-20T22:46:17.457Z,23.90
2022-10-20T22:48:44.212Z,19.55
2022-10-20T22:51:11.182Z,22.95
2022-10-20T22:53:38.693Z,21.10
2022-10-20T22:56:11.449Z,25.38
2022-10-20T22:58:38.654Z,22.48
2022-10-20T23:01:10.349Z,22.77
2022-10-20T23:03:37.350Z,23.90
2022-10-20T23:06:16.020Z,20.80
2022-10-20T23:08:45.513Z,28.63
2022-10-20T23:11:12.916Z,25.17
2022-10-20T23:13:39.482Z,21.55
2022-10-20T23:16:06.802Z,24.75
2022-10-20T23:18:33.522Z,24.35
2022-10-20T23:21:00.088Z,24.58
2022-10-20T23:23:26.649Z,21.70
2022-10-20T23:25:53.475Z,21.75
2022-10-20T23:28:20.288Z,25.30
2022-10-20T23:30:47.363Z,27.60
2022-10-20T23:33:13.956Z,21.55
2022-10-20T23:35:40.579Z,23.48
2022-10-20T23:38:09.403Z,21.65
2022-10-20T23:40:36.460Z,22.13
2022-10-20T23:43:03.001Z,28.48
2022-10-20T23:45:30.915Z,24.08
2022-10-20T23:48:00.498Z,21.80
2022-10-20T23:50:27.030Z,21.73
2022-10-20T23:52:53.534Z,25.02
2022-10-20T23:55:20.422Z,25.08
2022-10-20T23:57:48.977Z,22.45
